Flight Track Log - Related Links

Times and Time Zones

All times are in EDT time to prevent confusion due to time zone crossing. See the N12JD flight status page for this flight to view local times or setup timezone preferences in your user account.

Time Position Orientation Groundspeed Altitude Reporting Facility
EDT Latitude Longitude Course Direction KTS MPH feet Rate Location/Type
Sat 03:36:28 PM 35.2356 -91.7297 17° North 136 157 1,100  Level Memphis Center
Sat 03:37:56 PM 35.3069 -91.7031 17° North 177 204 3,100 1,176 Climbing Memphis Center
Sat 03:38:56 PM 35.3550 -91.6833 19° North 177 204 4,000 1,050 Climbing Memphis Center
Sat 03:39:56 PM 35.4031 -91.6639 18° North 177 204 5,200 1,150 Climbing Memphis Center
Sat 03:40:56 PM 35.4533 -91.6417 20° North 185 213 6,300 1,200 Climbing Memphis Center
Sat 03:41:56 PM 35.5078 -91.6194 18° North 196 226 7,600 1,200 Climbing Memphis Center
Sat 03:42:56 PM 35.5667 -91.5950 19° North 196 226 8,700 1,150 Climbing Memphis Center
Sat 03:43:56 PM 35.6211 -91.5650 24° Northeast 203 234 9,900 1,350 Climbing Memphis Center
Sat 03:44:56 PM 35.6756 -91.5403 20° North 209 241 11,400 1,300 Climbing Memphis Center
Sat 03:45:56 PM 35.7281 -91.5103 25° Northeast 209 241 12,500 1,140 Climbing Memphis Center
Sat 03:46:57 PM 35.7844 -91.4831 21° North 209 241 13,700 1,150 Climbing Memphis Center
Sat 03:47:56 PM 35.8369 -91.4556 23° Northeast 209 241 14,800 1,008 Climbing Memphis Center
Sat 03:48:56 PM 35.8975 -91.4281 20° North 215 247 15,700 950 Climbing Memphis Center
Sat 03:49:56 PM 35.9500 -91.3981 25° Northeast 214 246 16,700 950 Climbing Memphis Center
Sat 03:50:56 PM 36.0086 -91.3706 21° North 215 247 17,600 800 Climbing Memphis Center
Sat 03:51:56 PM 36.0653 -91.3378 25° Northeast 215 247 18,300 700 Climbing Memphis Center
Sat 03:52:56 PM 36.1258 -91.3103 20° North 220 253 19,000 650 Climbing Memphis Center
Sat 03:53:56 PM 36.1908 -91.2775 22° Northeast 230 265 19,600 650 Climbing Memphis Center
Sat 03:54:56 PM 36.2514 -91.2475 22° Northeast 230 265 20,300 700 Climbing Memphis Center
Sat 03:55:56 PM 36.3183 -91.2147 22° Northeast 236 272 21,000 650 Climbing Memphis Center
Sat 03:56:56 PM 36.3789 -91.1819 24° Northeast 236 272 21,600 300 Climbing Memphis Center
Sat 03:57:56 PM 36.4458 -91.1464 23° Northeast 236 272 21,600 -200 Level Memphis Center
Sat 03:58:56 PM 36.5192 -91.1108 21° North 258 297 21,200 -500 Descending Memphis Center
Sat 03:59:56 PM 36.5944 -91.0728 22° Northeast 277 319 20,600 -800 Descending Memphis Center
Sat 04:00:56 PM 36.6697 -91.0347 22° Northeast 287 330 19,600 -533 Descending Memphis Center
Sat 04:02:56 PM 36.8253 -90.9492 24° Northeast 297 342 19,000 -198 Descending Kansas City Center
Sat 04:03:58 PM 36.9014 -90.9100 22° Northeast 296 341 19,000  Level Kansas City Center
Sat 04:04:59 PM 36.9744 -90.8722 22° Northeast 288 331 19,000  Level Kansas City Center
Sat 04:06:01 PM 37.0489 -90.8328 23° Northeast 289 333 19,000  Level Kansas City Center
Sat 04:07:02 PM 37.1256 -90.7933 22° Northeast 290 334 19,000  Level Kansas City Center
Sat 04:08:04 PM 37.1983 -90.7558 22° Northeast 290 334 19,000  Level Kansas City Center
Sat 04:09:05 PM 37.2722 -90.7156 23° Northeast 289 333 19,000  Level Kansas City Center
Sat 04:10:06 PM 37.3469 -90.6769 22° Northeast 288 331 19,000  Level Kansas City Center
Sat 04:11:08 PM 37.4183 -90.6394 23° Northeast 289 333 19,000  Level Kansas City Center
Sat 04:12:09 PM 37.5061 -90.5933 23° Northeast 287 330 19,000  Level Kansas City Center
Sat 04:13:11 PM 37.5800 -90.5533 23° Northeast 288 331 19,000  Level Kansas City Center
Sat 04:14:12 PM 37.6533 -90.5150 22° Northeast 286 329 19,000  Level Kansas City Center
Sat 04:15:13 PM 37.7261 -90.4769 22° Northeast 284 327 19,000  Level Kansas City Center
Sat 04:16:15 PM 37.7994 -90.4369 23° Northeast 286 329 19,000  Level Kansas City Center
Sat 04:17:16 PM 37.8728 -90.3992 22° Northeast 286 329 19,000  Level Kansas City Center
Sat 04:18:17 PM 37.9456 -90.3611 22° Northeast 284 327 19,000  Level Kansas City Center
Sat 04:19:19 PM 38.0186 -90.3206 24° Northeast 286 329 19,000  Level Kansas City Center
Sat 04:20:20 PM 38.1072 -90.2739 23° Northeast 287 330 19,000  Level Kansas City Center
Sat 04:21:22 PM 38.1800 -90.2339 23° Northeast 287 330 19,000  Level Kansas City Center
Sat 04:22:23 PM 38.2525 -90.1939 23° Northeast 287 330 19,000  Level Kansas City Center
Sat 04:23:24 PM 38.3253 -90.1558 22° Northeast 284 327 19,000  Level Kansas City Center
Sat 04:24:26 PM 38.3981 -90.1161 23° Northeast 286 329 19,000  Level Kansas City Center
Sat 04:25:27 PM 38.4703 -90.0767 23° Northeast 285 328 19,000  Level Kansas City Center
Sat 04:26:28 PM 38.5431 -90.0372 23° Northeast 286 329 19,000  Level Kansas City Center
Sat 04:27:30 PM 38.6297 -89.9894 23° Northeast 285 328 19,000  Level Kansas City Center
Sat 04:28:31 PM 38.7017 -89.9489 24° Northeast 285 328 19,000  Level Kansas City Center
Sat 04:29:33 PM 38.7753 -89.9089 23° Northeast 288 331 19,000  Level Kansas City Center
Sat 04:30:34 PM 38.8492 -89.8847 14° North 290 334 19,000  Level Kansas City Center
Sat 04:31:35 PM 38.8928 -89.9436 314° West 243 280 19,000  Level Kansas City Center
Sat 04:32:37 PM 38.9375 -90.0039 314° West 235 270 19,000  Level Kansas City Center
Sat 04:33:38 PM 38.9814 -90.0633 314° West 232 267 19,000  Level Kansas City Center
Sat 04:34:40 PM 39.0344 -90.1361 313° West 233 268 19,000  Level Kansas City Center
Sat 04:35:41 PM 39.0789 -90.1981 313° West 236 272 19,000  Level Kansas City Center
Sat 04:36:43 PM 39.1228 -90.2594 313° West 235 270 19,000  Level Kansas City Center
Sat 04:37:44 PM 39.1675 -90.3214 313° West 236 272 19,000  Level Kansas City Center
Sat 04:38:45 PM 39.2111 -90.3831 312° West 235 270 19,000  Level Kansas City Center
Sat 04:39:47 PM 39.2567 -90.4453 313° West 238 274 19,000  Level Kansas City Center
Sat 04:40:48 PM 39.3019 -90.5086 313° West 240 276 19,000  Level Kansas City Center
Sat 04:41:50 PM 39.3553 -90.5836 313° West 239 275 19,000  Level Kansas City Center
Sat 04:42:51 PM 39.3994 -90.6444 313° West 235 270 19,000  Level Kansas City Center
Sat 04:43:52 PM 39.4442 -90.7086 312° West 237 273 19,000  Level Kansas City Center
Sat 04:44:54 PM 39.4892 -90.7708 313° West 237 273 19,000  Level Kansas City Center
Sat 04:45:55 PM 39.5336 -90.8331 313° West 237 273 19,000  Level Kansas City Center
Sat 04:46:56 PM 39.5775 -90.8964 312° West 236 272 19,000  Level Kansas City Center
Sat 04:47:58 PM 39.6217 -90.9589 313° West 236 272 19,000  Level Kansas City Center
Sat 04:48:59 PM 39.6656 -91.0219 312° West 237 273 19,000  Level Kansas City Center
Sat 04:50:01 PM 39.7108 -91.0836 314° West 237 273 19,000  Level Kansas City Center
Sat 04:51:02 PM 39.7628 -91.1589 312° West 239 275 19,000  Level Kansas City Center
Sat 04:52:03 PM 39.8064 -91.2214 312° West 237 273 19,000  Level Kansas City Center
Sat 04:53:05 PM 39.8619 -91.2714 325° Northwest 250 288 19,000  Level Kansas City Center
Sat 04:54:06 PM 39.9372 -91.2428 16° North 283 326 19,000  Level Kansas City Center
Sat 04:55:07 PM 40.0111 -91.2125 17° North 283 326 19,000  Level Kansas City Center
Sat 04:56:09 PM 40.1019 -91.1742 18° North 287 330 19,000  Level Kansas City Center
Sat 04:57:10 PM 40.1781 -91.1428 17° North 288 331 19,000  Level Kansas City Center
Sat 04:58:12 PM 40.2531 -91.1117 18° North 286 329 19,000  Level Kansas City Center
Sat 04:59:13 PM 40.3344 -91.0761 18° North 286 329 19,000  Level Kansas City Center
Sat 05:00:08 PM 40.3969 -91.0508 17° North 288 331 19,000  Level Chicago Center
Sat 05:01:10 PM 40.4739 -91.0183 18° North 288 331 19,000  Level Chicago Center
Sat 05:02:11 PM 40.5494 -90.9856 18° North 287 330 19,000  Level Chicago Center
Sat 05:03:13 PM 40.6408 -90.9461 18° North 286 329 19,000  Level Chicago Center
Sat 05:04:14 PM 40.7183 -90.9142 17° North 290 334 19,000  Level Chicago Center
Sat 05:05:16 PM 40.7947 -90.8814 18° North 289 333 19,000  Level Chicago Center
Sat 05:06:17 PM 40.8717 -90.8489 18° North 289 333 19,000  Level Chicago Center
Sat 05:07:19 PM 40.9486 -90.8153 18° North 290 334 19,000  Level Chicago Center
Sat 05:09:22 PM 41.1014 -90.7500 18° North 289 333 19,000  Level Chicago Center
Sat 05:10:23 PM 41.1775 -90.7172 18° North 287 330 19,000  Level Chicago Center
Sat 05:11:24 PM 41.2536 -90.6844 18° North 286 329 19,000  Level Chicago Center
Sat 05:12:26 PM 41.3311 -90.6503 18° North 292 336 19,000  Level Chicago Center
Sat 05:13:27 PM 41.4081 -90.6167 18° North 291 335 19,000  Level Chicago Center
Sat 05:14:29 PM 41.5011 -90.5750 19° North 293 337 19,000  Level Chicago Center
Sat 05:15:30 PM 41.5767 -90.5442 17° North 286 329 19,000  Level Chicago Center
Sat 05:16:32 PM 41.6528 -90.5100 19° North 286 329 19,000  Level Chicago Center
Sat 05:17:33 PM 41.7247 -90.4619 26° Northeast 294 338 19,000  Level Chicago Center
Sat 05:18:35 PM 41.7761 -90.3739 52° Northeast 301 346 19,000  Level Chicago Center
Sat 05:19:36 PM 41.8322 -90.2831 50° Northeast 300 345 19,000  Level Chicago Center
Sat 05:20:37 PM 41.8847 -90.1972 51° Northeast 301 346 19,000  Level Chicago Center
Sat 05:21:39 PM 41.9369 -90.1125 50° Northeast 299 344 19,000  Level Chicago Center
Sat 05:22:40 PM 41.9889 -90.0272 51° Northeast 299 344 19,000 -98 Level Chicago Center
Sat 05:23:42 PM 42.0436 -89.9425 49° Northeast 300 345 18,800 -732 Descending Chicago Center
Sat 05:24:43 PM 42.1047 -89.8428 50° Northeast 299 344 17,500 -1,082 Descending Chicago Center
Sat 05:25:44 PM 42.1594 -89.7542 50° Northeast 305 351 16,600 -927 Descending Chicago Center
Sat 05:26:46 PM 42.2136 -89.6675 50° Northeast 304 350 15,600 -976 Descending Chicago Center
Sat 05:27:47 PM 42.2669 -89.5819 50° Northeast 300 345 14,600 -934 Descending Chicago Center
Sat 05:28:48 PM 42.3186 -89.4950 51° Northeast 295 339 13,700 -1,024 Descending Chicago Center
Sat 05:29:50 PM 42.3803 -89.3972 49° Northeast 292 336 12,500 -1,073 Descending Chicago Center
Sat 05:30:51 PM 42.4319 -89.3114 51° Northeast 293 337 11,500 -984 Descending Chicago Center
Sat 05:31:52 PM 42.4828 -89.2269 51° Northeast 291 335 10,500 -976 Descending Chicago Center
Sat 05:32:54 PM 42.5333 -89.1461 50° Northeast 282 325 9,500 -927 Descending Chicago Center
Sat 05:33:55 PM 42.5856 -89.0711 47° Northeast 275 316 8,600 -934 Descending Chicago Center
Sat 05:34:56 PM 42.6325 -89.0031 47° Northeast 249 287 7,600 -976 Descending Chicago Center
Sat 05:35:58 PM 42.6775 -88.9378 47° Northeast 240 276 6,600 -976 Descending Chicago Center
Sat 05:36:59 PM 42.7200 -88.8736 48° Northeast 232 267 5,600 -780 Descending Chicago Center
Sat 05:38:01 PM 42.7628 -88.7967 53° Northeast 221 254 5,000 -293 Descending Chicago Center
Sat 05:39:02 PM 42.7992 -88.7250 55° Northeast 226 260 5,000  Level Chicago Center
Sat 05:40:03 PM 42.8372 -88.6472 56° Northeast 239 275 5,000 -293 Level Chicago Center
Sat 05:41:05 PM 42.8747 -88.5711 56° Northeast 243 280 4,400 -780 Descending Chicago Center
Sat 05:42:06 PM 42.9050 -88.5097 56° Northeast 217 250 3,400 -683 Descending Chicago Center
Sat 05:43:08 PM 42.9325 -88.4550 56° Northeast 191 220 3,000 -195 Descending Chicago Center
Sat 05:44:09 PM 42.9608 -88.3969 56° Northeast 184 212 3,000 -197 Level Chicago Center
Sat 05:45:10 PM 42.9903 -88.3428 53° Northeast 181 208 2,600 -146 Descending Chicago Center
Sat 05:46:12 PM 43.0144 -88.2761 64° Northeast 173 199 2,700 -146 Climbing Chicago Center
Sat 05:47:13 PM 43.0100 -88.2325 98° East 152 175 2,300 -634 Descending Chicago Center
Sat 05:48:15 PM 43.0378 -88.2133 27° Northeast 143 165 1,400 -871 Descending Chicago Center
Sat 05:50:00 PM 43.0333 -88.2333 North  Level FlightAware Approximate

Login

Don't have an account? Register now (free) for customized features, flight alerts, and more!